• Join FlightAware (Why Join?)
  • Login
  • US Flag 
02:23PM EDT


 

Airport Tracker/Info


-or-


 

Live Flight TrackerFlight Track Log ✈ N210PM ✈ 30-Nov-2013 ✈ KSPF - KGRI

Flight Track Log - Related Links

Times and Time Zones

All times are in EST time to prevent confusion due to time zone crossing. See the N210PM flight status page for this flight to view local times or setup timezone preferences in your user account.

Time Position Orientation Groundspeed Altitude Reporting Facility
EST Latitude Longitude Course Direction KTS MPH feet Rate Location/Type
08:58PM 44.4406 -103.7208 128° Southeast 200 230 6,700  Level Denver Center
08:58PM 44.4378 -103.7158 128° Southeast 205 236 7,000 2,520 Climbing Denver Center
09:00PM 44.3986 -103.6419 127° Southeast 205 236 9,900 2,640 Climbing Denver Center
09:00PM 44.3597 -103.5831 133° Southeast 213 245 12,400 2,640 Climbing Denver Center
09:01PM 44.3564 -103.5728 114° Southeast 205 236 12,600 1,980 Climbing Denver Center
09:02PM 44.3172 -103.5072 130° Southeast 214 246 14,800 2,100 Climbing Denver Center
09:03PM 44.2692 -103.4253 129° Southeast 228 262 17,000 1,920 Climbing Denver Center
09:04PM 44.0160 -102.9988 128° Southeast  Level Estimated
09:04PM 44.2272 -103.3547 130° Southeast 237 273 18,800  Level Denver Center
09:05PM 44.1789 -103.2719 129° Southeast 242 278 21,000 1,800 Climbing Denver Center
09:06PM 44.1344 -103.1967 129° Southeast 249 287 22,500 1,440 Climbing Denver Center
09:07PM 44.0889 -103.1217 130° Southeast 255 293 24,000 1,500 Climbing Denver Center
09:08PM 44.0406 -103.0394 129° Southeast 267 307 25,600 1,560 Climbing Denver Center
09:09PM 43.9844 -102.9456 130° Southeast 274 315 27,300 1,560 Climbing Denver Center
09:10PM 43.9264 -102.8508 130° Southeast 282 325 28,900 1,440 Climbing Denver Center
09:11PM 43.8761 -102.7656 129° Southeast 288 331 30,300 1,320 Climbing Denver Center
09:12PM 43.8150 -102.6647 130° Southeast 296 341 31,700 1,080 Climbing Denver Center
09:13PM 43.7694 -102.5911 131° Southeast 302 348 32,600 1,020 Climbing Denver Center
09:14PM 43.6992 -102.4744 130° Southeast 306 352 33,800 1,020 Climbing Denver Center
09:15PM 43.6461 -102.3881 130° Southeast 309 356 34,800 540 Climbing Denver Center
09:16PM 43.5894 -102.2967 131° Southeast 323 372 35,000 60 Climbing Denver Center
09:17PM 43.5194 -102.1803 130° Southeast 349 402 35,000  Level Denver Center
09:18PM 43.4550 -102.0753 130° Southeast 369 425 35,000  Level Denver Center
09:19PM 43.3772 -101.9497 130° Southeast 383 441 35,000  Level Denver Center
09:20PM 43.3103 -101.8431 131° Southeast 385 443 35,000  Level Denver Center
09:21PM 43.2311 -101.7169 131° Southeast 389 448 35,000  Level Denver Center
09:22PM 43.1633 -101.6083 131° Southeast 390 449 35,000  Level Denver Center
09:23PM 43.0961 -101.5014 131° Southeast 387 445 35,000  Level Denver Center
09:24PM 43.0194 -101.3797 131° Southeast 391 450 35,000  Level Denver Center
09:25PM 42.9508 -101.2725 131° Southeast 390 449 35,000  Level Denver Center
09:26PM 42.8711 -101.1469 131° Southeast 392 451 35,000  Level Denver Center
09:27PM 42.8028 -101.0411 131° Southeast 389 448 35,000  Level Denver Center
09:28PM 42.7239 -100.9161 131° Southeast 390 449 35,000  Level Denver Center
09:29PM 42.6661 -100.8281 132° Southeast 390 449 35,000  Level Denver Center
09:30PM 42.5744 -100.6856 131° Southeast 390 449 35,000  Level Denver Center
09:31PM 42.5044 -100.5803 132° Southeast 392 451 35,000  Level Denver Center
09:32PM 42.4358 -100.4736 131° Southeast 389 448 35,000  Level Denver Center
09:34PM 42.3544 -100.3489 131° Southeast 395 455 35,000  Level Denver Center
09:35PM 42.2856 -100.2436 131° Southeast 393 452 35,000  Level Denver Center
09:36PM 42.2047 -100.1214 132° Southeast 391 450 35,000 -300 Level Denver Center
09:37PM 42.1342 -100.0175 132° Southeast 392 451 34,400 -1,200 Descending Denver Center
09:38PM 42.0550 -99.8961 131° Southeast 387 445 32,600 -1,800 Descending Denver Center
09:39PM 41.9886 -99.7975 132° Southeast 377 434 30,800 -1,860 Descending Denver Center
09:40PM 41.9225 -99.6992 132° Southeast 370 426 28,900 -2,040 Descending Denver Center
09:40PM 41.8683 -99.6175 132° Southeast 368 423 27,300 -2,040 Descending Minneapolis Center
09:41PM 41.7981 -99.5136 132° Southeast 372 428 25,300 -1,980 Descending Minneapolis Center
09:42PM 41.7283 -99.4117 132° Southeast 371 427 23,300 -1,920 Descending Minneapolis Center
09:43PM 41.6600 -99.3100 132° Southeast 368 423 21,400 -1,980 Descending Minneapolis Center
09:44PM 41.5928 -99.2111 132° Southeast 362 417 19,300 -1,860 Descending Minneapolis Center
09:46PM 41.5264 -99.1142 132° Southeast 355 409 17,600 -1,740 Descending Minneapolis Center
09:47PM 41.4631 -99.0214 132° Southeast 343 395 15,800 -1,740 Descending Minneapolis Center
09:48PM 41.4014 -98.9328 133° Southeast 331 381 14,100 -1,680 Descending Minneapolis Center
09:49PM 41.3411 -98.8458 133° Southeast 321 369 12,400 -1,680 Descending Minneapolis Center
09:50PM 41.2842 -98.7628 132° Southeast 307 353 10,800 -1,620 Descending Minneapolis Center
09:51PM 41.2289 -98.6817 132° Southeast 295 339 9,200 -1,560 Descending Minneapolis Center
09:52PM 41.1753 -98.6064 133° Southeast 283 326 7,700 -1,440 Descending Minneapolis Center
09:53PM 41.1244 -98.5331 133° Southeast 274 315 6,300 -1,380 Descending Minneapolis Center